createdAt,value
2019-02-24T00:01:29.153Z,1.60
2019-02-24T00:03:58.193Z,1.60
2019-02-24T00:06:26.921Z,1.60
2019-02-24T00:08:55.695Z,1.60
2019-02-24T00:11:24.473Z,1.60
2019-02-24T00:13:53.129Z,1.70
2019-02-24T00:16:22.033Z,1.70
2019-02-24T00:18:50.774Z,1.60
2019-02-24T00:21:19.434Z,1.60
2019-02-24T00:23:48.362Z,1.60
2019-02-24T00:26:17.621Z,1.60
2019-02-24T00:28:46.497Z,1.60
2019-02-24T00:31:15.247Z,1.70
2019-02-24T00:33:43.992Z,1.60
2019-02-24T00:36:12.807Z,1.60
2019-02-24T00:38:41.462Z,1.60
2019-02-24T00:41:10.711Z,1.70
2019-02-24T00:43:39.633Z,1.70
2019-02-24T00:46:08.786Z,1.70
2019-02-24T00:48:37.926Z,1.70
2019-02-24T00:51:06.606Z,1.70
2019-02-24T00:53:35.802Z,1.70
2019-02-24T00:56:04.778Z,1.70
2019-02-24T00:58:33.456Z,1.80
2019-02-24T01:01:02.128Z,1.70
2019-02-24T01:03:30.827Z,1.70
2019-02-24T01:05:59.569Z,1.70
2019-02-24T01:08:28.715Z,1.70
2019-02-24T01:10:57.794Z,1.40
2019-02-24T01:13:26.713Z,1.30
2019-02-24T01:15:55.389Z,1.20
2019-02-24T01:18:24.717Z,1.10
2019-02-24T01:20:53.841Z,1.10
2019-02-24T01:23:23.390Z,1.10
2019-02-24T01:25:52.133Z,1.10
2019-02-24T01:28:25.300Z,1.20
2019-02-24T01:30:51.423Z,1.10
2019-02-24T01:33:20.849Z,1.10
2019-02-24T01:35:49.874Z,1.10
2019-02-24T01:38:19.192Z,1.00
2019-02-24T01:40:48.274Z,1.10
2019-02-24T01:43:17.099Z,1.00
2019-02-24T01:45:46.111Z,1.00
2019-02-24T01:48:14.876Z,1.00
2019-02-24T01:50:43.790Z,0.90
2019-02-24T01:53:12.501Z,0.90
2019-02-24T01:55:41.689Z,0.90
2019-02-24T01:58:10.377Z,0.90
2019-02-24T02:00:40.235Z,0.80
2019-02-24T02:03:09.233Z,0.80
2019-02-24T02:05:37.913Z,0.80
2019-02-24T02:08:06.613Z,0.80
2019-02-24T02:10:35.938Z,0.90
2019-02-24T02:13:04.592Z,0.90
2019-02-24T02:15:33.506Z,0.90
2019-02-24T02:18:02.507Z,0.90
2019-02-24T02:20:31.407Z,0.90
2019-02-24T02:23:00.087Z,1.00
2019-02-24T02:25:29.347Z,0.90
2019-02-24T02:27:58.273Z,0.90
2019-02-24T02:30:27.174Z,0.90
2019-02-24T02:32:55.956Z,0.80
2019-02-24T02:35:24.622Z,0.90
2019-02-24T02:37:53.298Z,0.90
2019-02-24T02:40:22.024Z,0.80
2019-02-24T02:42:50.687Z,0.80
2019-02-24T02:45:19.357Z,0.80
2019-02-24T02:47:48.358Z,0.70
2019-02-24T02:50:17.001Z,0.70
2019-02-24T02:52:45.929Z,0.70
2019-02-24T02:55:14.772Z,0.70
2019-02-24T02:57:43.562Z,0.70
2019-02-24T03:00:27.506Z,0.60
2019-02-24T03:02:57.107Z,0.70
2019-02-24T03:05:25.872Z,0.60
2019-02-24T03:07:59.326Z,0.60
2019-02-24T03:10:28.007Z,0.60
2019-02-24T03:12:56.926Z,0.60
2019-02-24T03:15:25.950Z,0.60
2019-02-24T03:17:55.113Z,0.60
2019-02-24T03:20:23.762Z,0.60
2019-02-24T03:22:52.513Z,0.60
2019-02-24T03:25:21.165Z,0.60
2019-02-24T03:27:49.841Z,0.60
2019-02-24T03:30:18.561Z,0.60
2019-02-24T03:32:47.467Z,0.60
2019-02-24T03:35:16.121Z,0.60
2019-02-24T03:37:45.053Z,0.60
2019-02-24T03:40:13.726Z,0.60
2019-02-24T03:42:42.407Z,0.60
2019-02-24T03:45:11.493Z,0.60
2019-02-24T03:47:40.194Z,0.60
2019-02-24T03:50:08.948Z,0.70
2019-02-24T03:52:37.768Z,0.70
2019-02-24T03:55:06.603Z,0.70
2019-02-24T03:57:35.436Z,0.70
2019-02-24T04:00:04.487Z,0.80
2019-02-24T04:02:33.166Z,0.80
2019-02-24T04:05:01.910Z,0.80
2019-02-24T04:07:30.912Z,0.90
2019-02-24T04:09:59.924Z,0.90
2019-02-24T04:12:28.803Z,0.90
2019-02-24T04:14:57.804Z,0.90
2019-02-24T04:17:28.831Z,1.00
2019-02-24T04:19:57.731Z,1.10
2019-02-24T04:22:26.775Z,1.10
2019-02-24T04:24:56.010Z,1.10
2019-02-24T04:27:24.921Z,1.20
2019-02-24T04:29:53.704Z,1.20
2019-02-24T04:32:22.346Z,1.20
2019-02-24T04:34:51.010Z,1.20
2019-02-24T04:37:19.800Z,1.20
2019-02-24T04:39:48.674Z,1.20
2019-02-24T04:42:17.369Z,1.30
2019-02-24T04:44:46.079Z,1.30
2019-02-24T04:47:14.752Z,1.30
2019-02-24T04:49:43.443Z,1.30
2019-02-24T04:52:12.255Z,1.40
2019-02-24T04:54:40.986Z,1.40
2019-02-24T04:57:10.370Z,1.40
2019-02-24T04:59:39.102Z,1.40
2019-02-24T05:02:08.737Z,1.40
2019-02-24T05:04:38.392Z,1.40
2019-02-24T05:07:07.657Z,1.40
2019-02-24T05:09:36.365Z,1.40
2019-02-24T05:12:05.136Z,1.30
2019-02-24T05:14:34.178Z,1.20
2019-02-24T05:17:02.861Z,1.00
2019-02-24T05:19:31.813Z,0.90
2019-02-24T05:22:00.800Z,0.80
2019-02-24T05:24:29.731Z,0.80
2019-02-24T05:26:58.655Z,0.80
2019-02-24T05:29:28.398Z,0.70
2019-02-24T05:31:58.143Z,0.60
2019-02-24T05:34:27.605Z,0.60
2019-02-24T05:36:56.808Z,0.60
2019-02-24T05:39:25.823Z,0.50
2019-02-24T05:41:54.478Z,0.50
2019-02-24T05:44:23.289Z,0.50
2019-02-24T05:46:51.944Z,0.50
2019-02-24T05:49:20.602Z,0.40
2019-02-24T05:51:49.352Z,0.30
2019-02-24T05:54:18.295Z,0.40
2019-02-24T05:56:46.957Z,0.40
2019-02-24T05:59:15.982Z,0.50
2019-02-24T06:01:44.683Z,0.60
2019-02-24T06:04:13.724Z,0.70
2019-02-24T06:06:43.006Z,0.80
2019-02-24T06:09:12.157Z,0.90
2019-02-24T06:11:40.825Z,1.00
2019-02-24T06:14:09.530Z,1.10
2019-02-24T06:16:38.434Z,1.20
2019-02-24T06:19:07.128Z,1.40
2019-02-24T06:21:35.909Z,1.50
2019-02-24T06:24:04.893Z,1.60
2019-02-24T06:26:33.936Z,1.70
2019-02-24T06:29:02.699Z,1.80
2019-02-24T06:31:34.287Z,1.90
2019-02-24T06:34:02.993Z,2.00
2019-02-24T06:36:32.311Z,2.00
2019-02-24T06:39:01.223Z,2.20
2019-02-24T06:41:30.048Z,2.20
2019-02-24T06:43:59.451Z,2.20
2019-02-24T06:46:31.076Z,2.20
2019-02-24T06:49:00.038Z,2.20
2019-02-24T06:51:29.135Z,2.20
2019-02-24T06:53:57.830Z,2.30
2019-02-24T06:56:26.665Z,2.30
2019-02-24T06:58:55.926Z,2.40
2019-02-24T07:01:25.006Z,2.50
2019-02-24T07:03:54.635Z,2.50
2019-02-24T07:06:24.386Z,2.60
2019-02-24T07:08:53.110Z,2.60
2019-02-24T07:11:26.848Z,2.60
2019-02-24T07:13:55.881Z,2.60
2019-02-24T07:16:27.389Z,2.60
2019-02-24T07:18:56.598Z,2.50
2019-02-24T07:21:25.349Z,2.50
2019-02-24T07:23:54.497Z,2.50
2019-02-24T07:26:23.652Z,2.60
2019-02-24T07:28:54.277Z,2.70
2019-02-24T07:31:23.245Z,2.80
2019-02-24T07:33:52.164Z,2.90
2019-02-24T07:36:21.160Z,3.00
2019-02-24T07:38:49.901Z,3.10
2019-02-24T07:41:18.634Z,3.30
2019-02-24T07:43:47.969Z,3.40
2019-02-24T07:46:16.665Z,3.50
2019-02-24T07:48:45.448Z,3.70
2019-02-24T07:51:14.587Z,3.80
2019-02-24T07:53:43.250Z,3.80
2019-02-24T07:56:12.162Z,3.90
2019-02-24T07:58:41.171Z,4.00
2019-02-24T08:01:09.858Z,4.10
2019-02-24T08:03:38.721Z,4.10
2019-02-24T08:06:10.095Z,4.00
2019-02-24T08:08:38.973Z,3.80
2019-02-24T08:11:07.673Z,3.70
2019-02-24T08:13:36.474Z,3.60
2019-02-24T08:16:05.193Z,3.70
2019-02-24T08:18:34.025Z,3.90
2019-02-24T08:21:03.338Z,4.10
2019-02-24T08:23:32.172Z,4.20
2019-02-24T08:26:00.898Z,4.20
2019-02-24T08:28:29.876Z,4.30
2019-02-24T08:30:58.862Z,4.40
2019-02-24T08:33:27.854Z,4.70
2019-02-24T08:35:56.853Z,4.90
2019-02-24T08:38:25.687Z,5.10
2019-02-24T08:40:55.079Z,5.30
2019-02-24T08:43:26.395Z,5.50
2019-02-24T08:45:55.067Z,6.00
2019-02-24T08:48:23.738Z,7.50
2019-02-24T08:50:52.544Z,8.80
2019-02-24T08:53:21.213Z,10.20
2019-02-24T08:55:51.568Z,11.80
2019-02-24T08:58:21.835Z,13.30
2019-02-24T09:00:51.378Z,14.40
2019-02-24T09:03:20.186Z,15.10
2019-02-24T09:05:49.190Z,15.60
2019-02-24T09:08:18.055Z,16.00
2019-02-24T09:10:47.017Z,16.30
2019-02-24T09:13:15.990Z,16.40
2019-02-24T09:15:44.656Z,16.50
2019-02-24T09:18:13.479Z,16.50
2019-02-24T09:20:42.507Z,17.00
2019-02-24T09:23:11.232Z,17.20
2019-02-24T09:25:39.946Z,16.80
2019-02-24T09:28:08.759Z,17.00
2019-02-24T09:30:37.486Z,17.40
2019-02-24T09:33:06.154Z,18.00
2019-02-24T09:35:35.578Z,18.40
2019-02-24T09:38:04.494Z,18.30
2019-02-24T09:40:33.470Z,18.50
2019-02-24T09:43:02.461Z,18.70
2019-02-24T09:45:32.403Z,19.00
2019-02-24T09:48:01.310Z,19.30
2019-02-24T09:50:30.039Z,19.90
2019-02-24T09:52:58.743Z,20.40
2019-02-24T09:55:27.630Z,20.50
2019-02-24T09:57:56.898Z,20.50
2019-02-24T10:00:25.845Z,20.50
2019-02-24T10:02:54.526Z,20.90
2019-02-24T10:05:23.597Z,20.50
2019-02-24T10:07:52.268Z,20.20
2019-02-24T10:10:20.955Z,19.90
2019-02-24T10:12:49.946Z,20.00
2019-02-24T10:15:18.874Z,19.60
2019-02-24T10:17:47.551Z,19.80
2019-02-24T10:20:16.709Z,20.50
2019-02-24T10:22:45.437Z,21.10
2019-02-24T10:25:14.094Z,20.90
2019-02-24T10:27:42.998Z,20.80
2019-02-24T10:30:11.873Z,20.40
2019-02-24T10:32:40.764Z,20.10
2019-02-24T10:35:10.001Z,19.90
2019-02-24T10:37:38.765Z,19.90
2019-02-24T10:40:09.387Z,20.20
2019-02-24T10:42:38.658Z,20.50
2019-02-24T10:45:09.509Z,20.70
2019-02-24T10:47:38.443Z,20.40
2019-02-24T10:50:10.101Z,19.90
2019-02-24T10:52:39.229Z,19.30
2019-02-24T10:55:08.116Z,19.30
2019-02-24T10:57:36.909Z,19.20
2019-02-24T11:00:07.454Z,19.50
2019-02-24T11:02:36.418Z,19.10
2019-02-24T11:05:05.731Z,17.90
2019-02-24T11:07:34.973Z,16.30
2019-02-24T11:10:04.195Z,14.90
2019-02-24T11:12:32.929Z,13.80
2019-02-24T11:15:02.876Z,13.00
2019-02-24T11:17:31.570Z,12.70
2019-02-24T11:20:00.577Z,12.40
2019-02-24T11:22:29.364Z,12.20
2019-02-24T11:24:58.045Z,12.20
2019-02-24T11:27:26.851Z,12.00
2019-02-24T11:29:55.897Z,11.90
2019-02-24T11:32:24.653Z,11.70
2019-02-24T11:34:53.678Z,11.70
2019-02-24T11:37:22.355Z,11.70
2019-02-24T11:39:51.050Z,11.70
2019-02-24T11:42:19.753Z,11.70
2019-02-24T11:44:48.751Z,11.60
2019-02-24T11:47:17.429Z,11.60
2019-02-24T11:49:46.489Z,11.70
2019-02-24T11:52:15.437Z,11.70
2019-02-24T11:54:44.370Z,11.70
2019-02-24T11:57:14.104Z,11.80
2019-02-24T11:59:43.096Z,11.80
2019-02-24T12:02:11.781Z,11.80
2019-02-24T12:04:40.748Z,11.80
2019-02-24T12:07:09.456Z,11.90
2019-02-24T12:09:38.168Z,11.80
2019-02-24T12:12:06.897Z,11.80
2019-02-24T12:14:35.949Z,11.80
2019-02-24T12:17:05.929Z,11.80
2019-02-24T12:19:34.970Z,11.80
2019-02-24T12:22:03.665Z,11.90
2019-02-24T12:24:32.773Z,11.90
2019-02-24T12:27:01.775Z,11.90
2019-02-24T12:29:30.421Z,11.90
2019-02-24T12:31:59.080Z,12.00
2019-02-24T12:34:27.776Z,12.20
2019-02-24T12:36:56.486Z,12.30
2019-02-24T12:39:25.606Z,12.30
2019-02-24T12:41:54.645Z,12.20
2019-02-24T12:44:23.533Z,12.20
2019-02-24T12:46:52.218Z,12.30
2019-02-24T12:49:21.180Z,12.40
2019-02-24T12:51:50.126Z,12.40
2019-02-24T12:54:19.079Z,12.40
2019-02-24T12:56:48.418Z,12.50
2019-02-24T12:59:17.319Z,12.50
2019-02-24T13:01:46.244Z,12.60
2019-02-24T13:04:15.578Z,12.60
2019-02-24T13:06:44.722Z,12.50
2019-02-24T13:09:13.597Z,12.60
2019-02-24T13:11:42.705Z,12.70
2019-02-24T13:14:11.394Z,12.60
2019-02-24T13:16:40.663Z,12.50
2019-02-24T13:19:09.609Z,12.50
2019-02-24T13:21:39.473Z,12.40
2019-02-24T13:24:08.699Z,12.30
2019-02-24T13:26:37.386Z,12.30
2019-02-24T13:29:06.054Z,12.40
2019-02-24T13:31:35.642Z,12.40
2019-02-24T13:34:04.311Z,12.50
2019-02-24T13:36:33.033Z,12.50
2019-02-24T13:39:02.268Z,12.50
2019-02-24T13:41:32.841Z,12.50
2019-02-24T13:44:01.501Z,12.50
2019-02-24T13:46:30.300Z,12.40
2019-02-24T13:48:59.306Z,12.40
2019-02-24T13:51:28.125Z,12.40
2019-02-24T13:53:56.797Z,12.50
2019-02-24T13:56:25.537Z,12.50
2019-02-24T13:58:54.264Z,12.50
2019-02-24T14:01:23.314Z,12.50
2019-02-24T14:03:51.984Z,12.50
2019-02-24T14:06:20.962Z,12.60
2019-02-24T14:08:49.673Z,12.50
2019-02-24T14:11:18.987Z,12.60
2019-02-24T14:13:47.924Z,12.60
2019-02-24T14:16:20.593Z,12.60
2019-02-24T14:18:50.062Z,12.60
2019-02-24T14:21:19.954Z,12.60
2019-02-24T14:23:48.986Z,12.60
2019-02-24T14:26:19.682Z,12.60
2019-02-24T14:28:48.472Z,12.60
2019-02-24T14:31:17.181Z,12.60
2019-02-24T14:33:46.069Z,12.60
2019-02-24T14:36:14.830Z,12.60
2019-02-24T14:38:43.850Z,12.50
2019-02-24T14:41:13.070Z,12.50
2019-02-24T14:43:41.821Z,12.50
2019-02-24T14:46:10.694Z,12.50
2019-02-24T14:48:39.977Z,12.50
2019-02-24T14:51:08.797Z,12.40
2019-02-24T14:53:37.993Z,12.40
2019-02-24T14:56:09.478Z,12.40
2019-02-24T14:58:41.475Z,12.30
2019-02-24T15:01:10.494Z,12.30
2019-02-24T15:03:39.879Z,12.30
2019-02-24T15:06:08.557Z,12.30
2019-02-24T15:08:37.346Z,12.20
2019-02-24T15:11:06.061Z,12.10
2019-02-24T15:13:36.160Z,12.10
2019-02-24T15:16:05.330Z,12.00
2019-02-24T15:18:34.249Z,12.00
2019-02-24T15:21:02.921Z,11.90
2019-02-24T15:23:32.690Z,11.90
2019-02-24T15:26:01.654Z,11.90
2019-02-24T15:28:30.549Z,11.90
2019-02-24T15:30:59.461Z,11.80
2019-02-24T15:33:28.389Z,11.80
2019-02-24T15:35:57.073Z,11.80
2019-02-24T15:38:25.854Z,11.80
2019-02-24T15:40:54.529Z,11.70
2019-02-24T15:43:23.440Z,11.70
2019-02-24T15:45:55.537Z,11.60
2019-02-24T15:48:24.987Z,11.50
2019-02-24T15:50:53.813Z,11.50
2019-02-24T15:53:22.736Z,11.40
2019-02-24T15:55:51.661Z,11.40
2019-02-24T15:58:20.310Z,11.40
2019-02-24T16:00:49.098Z,11.40
2019-02-24T16:03:17.759Z,11.30
2019-02-24T16:05:46.484Z,11.30
2019-02-24T16:08:15.217Z,11.20
2019-02-24T16:10:44.101Z,11.10
2019-02-24T16:13:17.083Z,11.00
2019-02-24T16:15:43.268Z,11.00
2019-02-24T16:18:11.945Z,10.90
2019-02-24T16:20:40.609Z,10.80
2019-02-24T16:23:09.883Z,10.70
2019-02-24T16:25:38.731Z,10.70
2019-02-24T16:28:07.809Z,10.60
2019-02-24T16:30:36.878Z,10.60
2019-02-24T16:33:10.629Z,10.50
2019-02-24T16:35:36.231Z,10.40
2019-02-24T16:38:05.106Z,10.40
2019-02-24T16:40:34.116Z,10.30
2019-02-24T16:43:06.066Z,10.20
2019-02-24T16:45:34.982Z,10.20
2019-02-24T16:48:07.310Z,10.10
2019-02-24T16:50:42.243Z,10.10
2019-02-24T16:53:11.157Z,10.00
2019-02-24T16:55:39.834Z,9.90
2019-02-24T16:58:09.138Z,9.90
2019-02-24T17:00:37.880Z,9.90
2019-02-24T17:03:06.985Z,9.80
2019-02-24T17:05:36.052Z,9.70
2019-02-24T17:08:04.738Z,9.70
2019-02-24T17:10:33.422Z,9.60
2019-02-24T17:13:02.285Z,9.60
2019-02-24T17:15:31.190Z,9.50
2019-02-24T17:17:59.887Z,9.50
2019-02-24T17:20:29.004Z,9.40
2019-02-24T17:22:57.818Z,9.40
2019-02-24T17:25:26.911Z,9.30
2019-02-24T17:27:56.238Z,9.30
2019-02-24T17:30:24.927Z,9.30
2019-02-24T17:32:53.801Z,9.20
2019-02-24T17:35:22.948Z,9.10
2019-02-24T17:37:51.695Z,9.10
2019-02-24T17:40:20.526Z,9.00
2019-02-24T17:42:49.580Z,9.00
2019-02-24T17:45:18.614Z,8.90
2019-02-24T17:47:47.359Z,8.90
2019-02-24T17:50:16.458Z,8.80
2019-02-24T17:52:45.633Z,8.80
2019-02-24T17:55:14.671Z,8.80
2019-02-24T17:57:43.550Z,8.70
2019-02-24T18:00:23.478Z,8.70
2019-02-24T18:02:52.805Z,8.70
2019-02-24T18:05:21.674Z,8.70
2019-02-24T18:07:50.510Z,8.70
2019-02-24T18:10:19.664Z,8.60
2019-02-24T18:12:48.973Z,8.50
2019-02-24T18:15:18.069Z,8.50
2019-02-24T18:17:46.867Z,8.40
2019-02-24T18:20:15.665Z,8.40
2019-02-24T18:22:46.095Z,8.30
2019-02-24T18:25:15.909Z,8.20
2019-02-24T18:27:44.744Z,8.20
2019-02-24T18:30:18.844Z,8.20
2019-02-24T18:32:47.512Z,8.20
2019-02-24T18:35:16.523Z,8.20
2019-02-24T18:37:45.349Z,8.10
2019-02-24T18:40:14.322Z,8.10
2019-02-24T18:42:43.148Z,8.00
2019-02-24T18:45:11.994Z,8.00
2019-02-24T18:47:41.234Z,7.90
2019-02-24T18:50:10.785Z,7.90
2019-02-24T18:52:39.746Z,7.80
2019-02-24T18:55:15.834Z,7.80
2019-02-24T18:57:44.601Z,7.70
2019-02-24T19:00:14.222Z,7.70
2019-02-24T19:02:43.631Z,7.60
2019-02-24T19:05:12.376Z,7.50
2019-02-24T19:07:41.044Z,7.50
2019-02-24T19:10:13.464Z,7.50
2019-02-24T19:12:42.235Z,7.50
2019-02-24T19:15:13.026Z,7.50
2019-02-24T19:17:41.843Z,7.40
2019-02-24T19:20:11.655Z,7.40
2019-02-24T19:22:40.570Z,7.40
2019-02-24T19:25:10.075Z,7.30
2019-02-24T19:27:38.749Z,7.30
2019-02-24T19:30:08.989Z,7.30
2019-02-24T19:32:38.237Z,7.30
2019-02-24T19:35:10.934Z,7.20
2019-02-24T19:37:39.718Z,7.10
2019-02-24T19:40:10.610Z,7.10
2019-02-24T19:42:39.545Z,7.10
2019-02-24T19:45:09.030Z,7.10
2019-02-24T19:47:37.775Z,7.10
2019-02-24T19:50:08.706Z,7.00
2019-02-24T19:52:37.398Z,7.10
2019-02-24T19:55:06.791Z,7.00
2019-02-24T19:57:36.020Z,7.10
2019-02-24T20:00:11.890Z,7.10
2019-02-24T20:02:40.747Z,7.10
2019-02-24T20:05:09.750Z,7.10
2019-02-24T20:07:38.793Z,7.00
2019-02-24T20:10:08.342Z,7.00
2019-02-24T20:12:37.086Z,7.00
2019-02-24T20:15:07.213Z,7.00
2019-02-24T20:17:36.049Z,6.90
2019-02-24T20:20:06.030Z,6.90
2019-02-24T20:22:41.224Z,6.80
2019-02-24T20:25:14.905Z,6.80
2019-02-24T20:27:46.418Z,6.80
2019-02-24T20:30:22.926Z,6.70
2019-02-24T20:32:51.618Z,6.70
2019-02-24T20:35:20.507Z,6.60
2019-02-24T20:37:49.297Z,6.60
2019-02-24T20:40:18.795Z,6.50
2019-02-24T20:42:49.411Z,6.50
2019-02-24T20:45:19.330Z,6.40
2019-02-24T20:47:48.192Z,6.40
2019-02-24T20:50:17.999Z,6.30
2019-02-24T20:52:47.312Z,6.30
2019-02-24T20:55:18.809Z,6.30
2019-02-24T20:58:22.163Z,6.20
2019-02-24T21:00:44.624Z,6.20
2019-02-24T21:03:14.207Z,6.30
2019-02-24T21:05:43.018Z,6.40
2019-02-24T21:08:11.870Z,6.30
2019-02-24T21:10:40.881Z,6.30
2019-02-24T21:13:11.872Z,6.30
2019-02-24T21:15:40.331Z,6.20
2019-02-24T21:18:09.340Z,6.20
2019-02-24T21:20:39.932Z,6.10
2019-02-24T21:23:10.176Z,6.10
2019-02-24T21:25:41.860Z,6.10
2019-02-24T21:28:11.375Z,6.10
2019-02-24T21:30:41.289Z,6.10
2019-02-24T21:33:10.128Z,6.00
2019-02-24T21:35:39.052Z,6.00
2019-02-24T21:38:08.137Z,6.00
2019-02-24T21:40:37.319Z,6.00
2019-02-24T21:43:08.365Z,5.90
2019-02-24T21:45:41.676Z,5.90
2019-02-24T21:48:10.926Z,5.80
2019-02-24T21:51:08.005Z,5.80
2019-02-24T21:53:37.021Z,5.80
2019-02-24T21:56:05.758Z,5.70
2019-02-24T21:58:34.412Z,5.60
2019-02-24T22:01:03.108Z,5.60
2019-02-24T22:03:32.029Z,5.50
2019-02-24T22:06:00.932Z,5.50
2019-02-24T22:08:30.188Z,5.50
2019-02-24T22:10:59.339Z,5.40
2019-02-24T22:13:28.011Z,5.40
2019-02-24T22:15:56.757Z,5.40
2019-02-24T22:18:25.431Z,5.40
2019-02-24T22:20:55.084Z,5.40
2019-02-24T22:23:24.542Z,5.40
2019-02-24T22:25:53.493Z,5.30
2019-02-24T22:28:22.190Z,5.30
2019-02-24T22:30:51.218Z,5.20
2019-02-24T22:33:22.508Z,5.20
2019-02-24T22:35:51.264Z,5.20
2019-02-24T22:38:20.086Z,5.20
2019-02-24T22:40:54.434Z,5.10
2019-02-24T22:43:22.261Z,5.10
2019-02-24T22:45:51.335Z,5.10
2019-02-24T22:48:20.082Z,5.10
2019-02-24T22:50:48.765Z,5.10
2019-02-24T22:53:17.484Z,5.00
2019-02-24T22:55:46.385Z,5.00
2019-02-24T22:58:15.037Z,5.00
2019-02-24T23:01:02.486Z,4.90
2019-02-24T23:03:42.619Z,5.00
2019-02-24T23:06:11.542Z,5.00
2019-02-24T23:08:40.202Z,5.00
2019-02-24T23:11:09.218Z,5.00
2019-02-24T23:13:39.387Z,5.00
2019-02-24T23:16:08.436Z,5.00
2019-02-24T23:18:37.405Z,5.00
2019-02-24T23:21:06.203Z,5.00
2019-02-24T23:23:34.949Z,5.00
2019-02-24T23:26:03.907Z,4.90
2019-02-24T23:28:32.570Z,5.00
2019-02-24T23:31:01.242Z,5.00
2019-02-24T23:33:30.129Z,5.00
2019-02-24T23:35:59.136Z,4.90
2019-02-24T23:38:27.865Z,4.90
2019-02-24T23:40:56.737Z,4.90
2019-02-24T23:43:26.094Z,4.80
2019-02-24T23:45:54.991Z,4.80
2019-02-24T23:48:23.653Z,4.80
2019-02-24T23:50:52.394Z,4.70
2019-02-24T23:53:21.052Z,4.70
2019-02-24T23:55:49.736Z,4.60
2019-02-24T23:58:18.613Z,4.50
